Time;durP1;ratioP1;P1;durP2;ratioP2;P2;SDS_P1;SDS_P2;PMS_P1;PMS_P2;Temp;Humidity;BMP_temperature;BMP_pressure;BME280_temperature;BME280_humidity;BME280_pressure;Samples;Min_cycle;Max_cycle;Signal;HPM_P1;HPM_P2
2023/05/19 00:02:10;;;;;;;19.40;10.70;;;13.70;61.80;;;;;;5068877;28;21177;-62
2023/05/19 00:04:50;;;;;;;18.80;7.07;;;13.70;61.80;;;;;;5070384;28;20467;-62
2023/05/19 00:07:33;;;;;;;14.00;5.17;;;13.70;61.90;;;;;;5069704;28;20462;-62
2023/05/19 00:10:11;;;;;;;10.30;4.00;;;13.70;62.00;;;;;;5069871;28;20536;-62
2023/05/19 00:12:47;;;;;;;13.13;4.70;;;13.60;62.00;;;;;;5063133;28;20554;-62
2023/05/19 00:15:17;;;;;;;9.30;5.00;;;13.50;62.10;;;;;;5070967;28;20458;-61
2023/05/19 00:17:51;;;;;;;8.27;4.17;;;13.50;62.10;;;;;;5067420;28;20572;-62
2023/05/19 00:20:23;;;;;;;7.80;3.47;;;13.50;62.20;;;;;;5068600;28;20451;-62
2023/05/19 00:22:57;;;;;;;9.60;3.97;;;13.40;62.30;;;;;;5069413;28;20942;-62
2023/05/19 00:25:28;;;;;;;8.60;3.63;;;13.40;62.30;;;;;;5069018;28;20464;-62
2023/05/19 00:28:08;;;;;;;10.13;4.50;;;13.30;62.40;;;;;;5066424;28;20468;-62
2023/05/19 00:30:47;;;;;;;10.73;4.03;;;13.30;62.50;;;;;;5068172;28;20800;-62
2023/05/19 00:33:25;;;;;;;11.13;4.60;;;13.20;62.50;;;;;;5070295;28;20444;-62
2023/05/19 00:36:01;;;;;;;11.73;5.37;;;13.20;62.60;;;;;;5071427;28;20471;-62
2023/05/19 00:38:43;;;;;;;9.90;4.13;;;13.10;62.60;;;;;;5065508;28;20480;-62
2023/05/19 00:41:16;;;;;;;10.57;4.03;;;13.10;62.90;;;;;;5068657;28;20461;-62
2023/05/19 00:43:56;;;;;;;7.87;3.83;;;13.00;62.90;;;;;;5067985;28;21006;-62
2023/05/19 00:46:30;;;;;;;10.53;3.37;;;13.00;63.00;;;;;;5070522;28;20468;-61
2023/05/19 00:49:12;;;;;;;8.63;3.20;;;13.00;63.00;;;;;;5061266;28;20499;-62
2023/05/19 00:51:44;;;;;;;9.67;3.60;;;12.90;63.00;;;;;;5066821;28;20473;-62
2023/05/19 00:54:33;;;;;;;9.93;3.10;;;12.80;63.00;;;;;;5070722;28;20990;-62
2023/05/19 00:57:17;;;;;;;9.00;3.80;;;12.70;63.20;;;;;;5068208;28;20883;-62
2023/05/19 00:59:50;;;;;;;9.10;3.13;;;12.60;63.20;;;;;;5069674;28;20499;-62
2023/05/19 01:02:28;;;;;;;6.97;3.50;;;12.50;63.30;;;;;;5062730;28;20839;-62
2023/05/19 01:05:05;;;;;;;6.50;2.73;;;12.50;63.40;;;;;;5068414;28;20464;-62
2023/05/19 01:07:43;;;;;;;8.87;3.73;;;12.40;63.60;;;;;;5068852;28;20928;-62
2023/05/19 01:10:30;;;;;;;8.90;3.10;;;12.40;63.70;;;;;;5067685;28;20902;-62
2023/05/19 01:13:11;;;;;;;5.60;3.00;;;12.30;63.90;;;;;;5065740;28;20491;-61
2023/05/19 01:15:57;;;;;;;8.17;3.30;;;12.30;63.80;;;;;;5069118;28;20522;-62
2023/05/19 01:18:40;;;;;;;5.60;3.13;;;12.20;63.90;;;;;;5068828;28;20465;-61
2023/05/19 01:22:05;;;;;;;14.90;3.60;;;12.20;64.00;;;;;;5069149;28;20876;-62
2023/05/19 01:25:10;;;;;;;6.80;3.30;;;12.10;64.10;;;;;;5009462;28;20484;-62
2023/05/19 01:28:11;;;;;;;11.70;3.27;;;12.10;64.30;;;;;;5015059;28;20466;-62
2023/05/19 01:30:54;;;;;;;6.90;3.30;;;12.00;64.40;;;;;;5065676;28;20570;-61
2023/05/19 01:33:25;;;;;;;9.37;3.70;;;12.00;64.30;;;;;;5067221;28;20480;-62
2023/05/19 01:36:02;;;;;;;8.40;3.70;;;12.00;64.40;;;;;;5083928;28;21017;-61
2023/05/19 01:38:39;;;;;;;15.30;6.57;;;12.00;64.40;;;;;;5068756;28;20450;-61
2023/05/19 01:41:27;;;;;;;9.03;3.97;;;12.00;64.50;;;;;;5066383;28;20558;-62
2023/05/19 01:44:04;;;;;;;8.70;4.10;;;12.00;64.50;;;;;;5067542;28;20464;-62
2023/05/19 01:46:42;;;;;;;10.63;5.30;;;12.00;64.50;;;;;;5066966;28;20442;-62
2023/05/19 01:49:21;;;;;;;11.27;5.00;;;12.00;64.60;;;;;;5059175;28;20554;-62
2023/05/19 01:51:56;;;;;;;14.93;7.00;;;12.00;64.70;;;;;;5064509;28;20558;-62
2023/05/19 01:54:35;;;;;;;9.80;4.50;;;12.00;64.70;;;;;;5081542;28;20457;-62
2023/05/19 01:57:23;;;;;;;14.60;7.60;;;11.90;64.60;;;;;;5067475;28;20902;-62
2023/05/19 02:00:06;;;;;;;8.67;4.60;;;11.90;64.80;;;;;;5066446;28;20562;-63
2023/05/19 02:03:23;;;;;;;10.93;3.67;;;11.90;64.90;;;;;;5064076;28;20470;-61
2023/05/19 02:06:02;;;;;;;8.90;3.83;;;11.90;64.90;;;;;;5067569;28;20680;-62
2023/05/19 02:08:54;;;;;;;9.40;4.13;;;11.80;64.90;;;;;;5066271;28;20466;-62
2023/05/19 02:11:38;;;;;;;10.63;4.77;;;11.80;65.00;;;;;;5065411;28;20453;-61
2023/05/19 02:14:15;;;;;;;10.97;5.20;;;11.70;65.00;;;;;;5062969;28;20488;-62
2023/05/19 02:16:48;;;;;;;13.50;5.27;;;11.70;65.10;;;;;;5062865;28;20458;-61
2023/05/19 02:19:30;;;;;;;7.60;3.73;;;11.60;65.10;;;;;;5065679;28;20461;-61
2023/05/19 02:22:06;;;;;;;8.67;3.73;;;11.70;65.20;;;;;;5069108;28;20475;-62
2023/05/19 02:24:50;;;;;;;7.07;3.60;;;11.60;65.20;;;;;;5067322;28;20514;-62
2023/05/19 02:27:26;;;;;;;7.07;3.73;;;11.60;65.20;;;;;;5068883;28;20465;-62
2023/05/19 02:29:57;;;;;;;10.23;4.20;;;11.50;65.20;;;;;;5068193;28;20478;-62
2023/05/19 02:32:32;;;;;;;7.50;3.00;;;11.50;65.30;;;;;;5067462;28;21245;-61
2023/05/19 02:35:17;;;;;;;8.50;3.50;;;11.50;65.30;;;;;;5068293;28;20920;-62
2023/05/19 02:37:52;;;;;;;6.57;3.53;;;11.40;65.40;;;;;;5070503;28;20445;-62
2023/05/19 02:40:25;;;;;;;12.63;3.47;;;11.40;65.40;;;;;;5071375;28;20843;-62
2023/05/19 02:43:02;;;;;;;8.97;3.80;;;11.30;65.50;;;;;;5068531;28;20445;-61
2023/05/19 02:45:43;;;;;;;5.13;2.83;;;11.30;65.50;;;;;;5062014;28;20558;-62
2023/05/19 02:48:16;;;;;;;6.60;3.47;;;11.30;65.60;;;;;;5071488;28;20528;-62
2023/05/19 02:50:57;;;;;;;5.67;2.77;;;11.20;65.70;;;;;;5069979;28;20465;-61
2023/05/19 02:53:33;;;;;;;6.77;3.40;;;11.20;65.80;;;;;;5069066;28;20493;-61
2023/05/19 02:56:14;;;;;;;10.30;4.23;;;11.10;65.90;;;;;;5069091;28;21065;-61
2023/05/19 02:58:51;;;;;;;7.60;3.97;;;11.10;66.00;;;;;;5059980;28;20454;-62
2023/05/19 03:01:22;;;;;;;6.50;3.23;;;11.10;66.10;;;;;;5066856;28;20471;-62
2023/05/19 03:03:54;;;;;;;5.43;3.20;;;11.10;66.20;;;;;;5069638;28;20559;-62
2023/05/19 03:06:44;;;;;;;6.60;3.37;;;11.10;66.20;;;;;;5071291;28;20574;-61
2023/05/19 03:09:17;;;;;;;6.83;3.30;;;11.10;66.30;;;;;;5068896;28;20453;-62
2023/05/19 03:11:54;;;;;;;7.83;3.80;;;11.10;66.30;;;;;;5069756;28;20454;-62
2023/05/19 03:14:28;;;;;;;7.50;3.63;;;11.10;66.40;;;;;;5070424;28;20504;-61
2023/05/19 03:17:08;;;;;;;8.83;3.47;;;11.10;66.40;;;;;;5070878;28;20610;-61
2023/05/19 03:19:50;;;;;;;8.97;4.03;;;11.10;66.50;;;;;;5069433;28;20753;-62
2023/05/19 03:22:31;;;;;;;6.37;3.40;;;11.10;66.50;;;;;;5071176;28;20555;-61
2023/05/19 03:25:05;;;;;;;7.83;3.00;;;11.10;66.60;;;;;;5071873;28;20491;-61
2023/05/19 03:27:34;;;;;;;12.90;4.03;;;11.10;66.60;;;;;;5069440;28;20454;-62
2023/05/19 03:30:04;;;;;;;7.60;3.20;;;11.10;66.60;;;;;;5068735;28;20459;-62
2023/05/19 03:33:00;;;;;;;8.97;3.23;;;11.10;66.60;;;;;;5064989;28;20483;-61
2023/05/19 03:35:33;;;;;;;7.83;3.20;;;11.10;66.70;;;;;;5067278;28;20470;-62
2023/05/19 03:38:05;;;;;;;7.47;3.13;;;11.20;66.70;;;;;;5069398;28;20501;-62
2023/05/19 03:40:42;;;;;;;7.57;3.60;;;11.20;66.80;;;;;;5068641;28;20480;-62
2023/05/19 03:43:23;;;;;;;5.83;3.47;;;11.20;66.80;;;;;;5067872;28;20550;-62
2023/05/19 03:46:14;;;;;;;8.00;3.87;;;11.20;66.80;;;;;;5070970;28;20840;-61
2023/05/19 03:49:10;;;;;;;5.77;3.23;;;11.20;66.90;;;;;;5070283;28;20598;-61
2023/05/19 03:52:08;;;;;;;8.53;3.33;;;11.20;66.90;;;;;;5070836;28;20801;-62
2023/05/19 03:55:20;;;;;;;6.93;3.30;;;11.20;66.90;;;;;;5068274;28;20475;-62
2023/05/19 03:57:55;;;;;;;7.80;2.67;;;11.20;67.00;;;;;;5070678;28;20455;-62
2023/05/19 04:00:29;;;;;;;5.80;2.80;;;11.20;67.00;;;;;;5067907;28;20458;-61
2023/05/19 04:03:10;;;;;;;8.30;3.33;;;11.30;67.10;;;;;;5070026;28;20465;-61
2023/05/19 04:05:50;;;;;;;6.77;3.57;;;11.30;67.10;;;;;;5071186;28;20452;-62
2023/05/19 04:08:21;;;;;;;6.50;3.40;;;11.30;67.00;;;;;;5067062;28;21029;-62
2023/05/19 04:10:57;;;;;;;8.73;3.33;;;11.20;67.10;;;;;;5069493;28;20558;-61
2023/05/19 04:13:40;;;;;;;7.00;3.67;;;11.30;67.10;;;;;;5068248;28;20499;-61
2023/05/19 04:16:16;;;;;;;7.00;3.07;;;11.30;67.20;;;;;;5068213;28;20470;-61
2023/05/19 04:18:51;;;;;;;7.23;3.10;;;11.30;67.30;;;;;;5071491;28;20468;-62
2023/05/19 04:21:26;;;;;;;10.07;3.00;;;11.30;67.30;;;;;;5069765;28;20482;-62
2023/05/19 04:24:01;;;;;;;7.27;3.20;;;11.40;67.30;;;;;;5069980;28;20536;-62
2023/05/19 04:26:45;;;;;;;8.03;3.87;;;11.40;67.40;;;;;;5067702;28;20479;-62
2023/05/19 04:29:22;;;;;;;8.23;3.20;;;11.50;67.50;;;;;;5068709;28;20572;-62
2023/05/19 04:31:54;;;;;;;5.90;3.10;;;11.50;67.40;;;;;;5068680;28;20578;-62
2023/05/19 04:34:33;;;;;;;6.40;3.20;;;11.60;67.50;;;;;;5069226;28;20515;-62
2023/05/19 04:37:08;;;;;;;7.70;3.57;;;11.60;67.70;;;;;;5069039;28;20931;-62
2023/05/19 04:39:51;;;;;;;6.10;3.03;;;11.70;67.80;;;;;;5068703;28;20459;-62
2023/05/19 04:42:44;;;;;;;6.27;3.27;;;11.80;67.80;;;;;;5066205;28;20485;-62
2023/05/19 04:45:25;;;;;;;7.90;3.40;;;11.80;67.90;;;;;;5065839;28;20481;-62
2023/05/19 04:48:02;;;;;;;10.47;4.50;;;11.90;68.00;;;;;;5070560;28;20468;-61
2023/05/19 04:50:37;;;;;;;7.17;4.60;;;11.90;68.10;;;;;;5069167;28;20468;-62
2023/05/19 04:55:56;;;;;;;7.67;4.07;;;12.00;68.20;;;;;;5069518;28;20524;-62
2023/05/19 04:58:37;;;;;;;7.43;3.73;;;12.10;68.20;;;;;;5063963;28;20546;-61
2023/05/19 05:01:12;;;;;;;13.60;4.43;;;12.20;68.30;;;;;;5078508;28;21306;-62
2023/05/19 05:03:43;;;;;;;11.57;4.60;;;12.20;68.30;;;;;;5076365;28;20496;-62
2023/05/19 05:06:15;;;;;;;8.50;4.50;;;12.30;68.20;;;;;;5069346;28;20452;-62
2023/05/19 05:08:49;;;;;;;9.97;5.50;;;12.30;68.30;;;;;;5069039;28;21044;-61
2023/05/19 05:11:30;;;;;;;15.40;5.87;;;12.40;68.20;;;;;;5067799;28;20494;-61
2023/05/19 05:14:12;;;;;;;13.47;6.07;;;12.50;68.20;;;;;;5060449;28;20475;-62
2023/05/19 05:16:45;;;;;;;13.13;7.27;;;12.50;68.10;;;;;;5068091;28;20485;-62
2023/05/19 05:19:22;;;;;;;12.10;5.07;;;12.60;68.20;;;;;;5066757;28;20456;-62
2023/05/19 05:21:59;;;;;;;12.13;5.50;;;12.70;68.10;;;;;;5068815;28;20997;-61
2023/05/19 05:24:34;;;;;;;9.93;5.20;;;12.80;68.10;;;;;;5066916;28;20489;-62
2023/05/19 05:27:08;;;;;;;11.03;4.50;;;12.90;68.00;;;;;;5063485;28;20471;-62
2023/05/19 05:30:03;;;;;;;13.00;5.73;;;12.90;67.90;;;;;;5064710;28;20467;-62
2023/05/19 05:32:31;;;;;;;9.90;4.27;;;13.00;67.90;;;;;;5082403;28;20491;-62
2023/05/19 05:35:18;;;;;;;12.90;4.73;;;13.10;67.70;;;;;;5067000;28;20479;-63
2023/05/19 05:37:54;;;;;;;10.40;3.87;;;13.20;67.80;;;;;;5066744;28;20465;-62
2023/05/19 05:40:27;;;;;;;12.13;3.80;;;13.30;67.90;;;;;;5061188;28;20453;-62
2023/05/19 05:43:05;;;;;;;9.37;3.40;;;13.50;67.80;;;;;;5065143;28;20491;-62
2023/05/19 05:46:05;;;;;;;13.37;4.23;;;13.50;67.60;;;;;;5067018;28;20482;-62
2023/05/19 05:48:40;;;;;;;15.53;7.43;;;13.70;67.60;;;;;;5067547;28;20678;-62
2023/05/19 05:51:16;;;;;;;11.40;4.60;;;13.80;67.40;;;;;;5084281;28;21028;-61
2023/05/19 05:53:51;;;;;;;8.43;3.43;;;13.80;67.10;;;;;;5060437;28;20492;-62
2023/05/19 05:56:26;;;;;;;18.77;4.30;;;13.80;66.70;;;;;;5071999;28;20916;-61
2023/05/19 05:59:00;;;;;;;7.70;4.00;;;13.80;66.70;;;;;;5072211;28;20483;-61
2023/05/19 06:01:34;;;;;;;8.73;3.90;;;13.90;67.00;;;;;;5069893;28;20475;-62
2023/05/19 06:04:11;;;;;;;12.77;3.90;;;14.20;67.10;;;;;;5069373;28;20461;-62
2023/05/19 06:06:46;;;;;;;11.50;3.47;;;14.50;66.60;;;;;;5065427;28;20538;-62
2023/05/19 06:09:23;;;;;;;11.23;3.57;;;14.80;66.10;;;;;;5066821;28;20486;-61
2023/05/19 06:12:00;;;;;;;10.47;3.40;;;14.90;65.50;;;;;;5070149;28;20977;-62
2023/05/19 06:14:40;;;;;;;8.27;3.50;;;14.90;64.90;;;;;;5075360;28;20491;-62
2023/05/19 06:17:40;;;;;;;9.63;3.73;;;14.70;64.60;;;;;;5072768;28;20618;-62
2023/05/19 06:20:18;;;;;;;7.20;3.00;;;14.40;64.60;;;;;;5070525;28;20465;-61
2023/05/19 06:22:55;;;;;;;8.03;2.87;;;14.20;64.70;;;;;;5067313;28;20460;-62
2023/05/19 06:25:29;;;;;;;11.77;3.70;;;14.10;64.90;;;;;;5066478;28;20919;-62
2023/05/19 06:28:06;;;;;;;8.07;3.50;;;14.10;65.00;;;;;;5071931;28;20555;-62
2023/05/19 06:30:44;;;;;;;11.67;3.93;;;14.00;65.00;;;;;;5067664;28;20530;-62
2023/05/19 06:33:32;;;;;;;7.27;3.20;;;14.00;65.10;;;;;;5069913;28;20548;-62
2023/05/19 06:36:12;;;;;;;11.83;3.83;;;14.00;65.10;;;;;;5071479;28;20988;-62
2023/05/19 06:38:48;;;;;;;14.03;3.97;;;14.00;65.10;;;;;;5068588;28;20767;-62
2023/05/19 06:41:28;;;;;;;13.13;3.27;;;13.90;65.30;;;;;;5067692;28;20468;-62
2023/05/19 06:44:01;;;;;;;12.80;4.60;;;14.00;65.30;;;;;;5070086;28;20560;-62
2023/05/19 06:46:33;;;;;;;17.17;3.87;;;14.00;65.30;;;;;;5071881;28;20919;-62
2023/05/19 06:49:15;;;;;;;11.93;3.10;;;14.10;65.40;;;;;;5068549;28;20467;-62
2023/05/19 06:51:48;;;;;;;9.73;4.03;;;14.20;65.50;;;;;;5062852;28;20480;-62
2023/05/19 06:54:24;;;;;;;8.70;3.80;;;14.20;65.40;;;;;;5069711;28;20900;-62
2023/05/19 06:57:03;;;;;;;8.60;3.03;;;14.30;65.40;;;;;;5081043;28;20465;-62
2023/05/19 06:59:46;;;;;;;6.33;2.60;;;14.30;65.50;;;;;;5068305;28;20995;-62
2023/05/19 07:02:21;;;;;;;8.50;3.63;;;14.40;65.20;;;;;;5070810;28;20481;-62
2023/05/19 07:05:02;;;;;;;7.80;3.63;;;14.40;65.20;;;;;;5069739;28;20554;-62
2023/05/19 07:07:42;;;;;;;11.10;4.23;;;14.50;65.10;;;;;;5070537;28;20561;-62
2023/05/19 07:10:20;;;;;;;9.97;3.27;;;14.60;65.00;;;;;;5068150;28;20464;-62
2023/05/19 07:12:55;;;;;;;7.03;2.47;;;14.60;65.00;;;;;;5069458;28;20466;-62
2023/05/19 07:15:29;;;;;;;8.60;2.73;;;14.70;65.00;;;;;;5072050;28;20466;-62
2023/05/19 07:18:02;;;;;;;9.10;3.10;;;14.70;64.80;;;;;;5069251;28;20468;-62
2023/05/19 07:20:46;;;;;;;9.50;4.00;;;14.80;64.50;;;;;;5067973;28;20469;-62
2023/05/19 07:23:16;;;;;;;11.50;4.67;;;14.90;64.30;;;;;;5069912;28;20969;-62
2023/05/19 07:25:50;;;;;;;9.20;2.90;;;14.90;64.20;;;;;;5071843;28;20456;-62
2023/05/19 07:28:28;;;;;;;8.80;3.17;;;14.90;64.20;;;;;;5071353;28;20460;-62
2023/05/19 07:30:59;;;;;;;8.20;2.97;;;15.00;64.00;;;;;;5071168;28;20486;-62
2023/05/19 07:33:40;;;;;;;8.00;3.27;;;15.00;63.80;;;;;;5072005;28;20456;-61
2023/05/19 07:36:28;;;;;;;10.30;3.40;;;15.10;63.90;;;;;;5072774;28;20481;-63
2023/05/19 07:39:09;;;;;;;8.43;3.00;;;15.20;63.80;;;;;;5070489;28;20967;-63
2023/05/19 07:41:42;;;;;;;11.33;3.70;;;15.30;63.80;;;;;;5069115;28;20903;-62
2023/05/19 07:44:18;;;;;;;9.17;2.60;;;15.40;63.60;;;;;;5069499;28;20460;-62
2023/05/19 07:46:51;;;;;;;12.73;3.67;;;15.40;63.30;;;;;;5071430;28;20453;-62
2023/05/19 07:49:31;;;;;;;14.53;4.23;;;15.40;63.00;;;;;;5072518;28;20471;-62
2023/05/19 07:52:03;;;;;;;8.50;3.50;;;15.40;63.00;;;;;;5068399;28;20492;-62
2023/05/19 07:54:42;;;;;;;11.40;3.97;;;15.40;62.90;;;;;;5069797;28;20474;-63
2023/05/19 07:57:14;;;;;;;10.50;3.77;;;15.50;62.60;;;;;;5069198;28;20612;-63
2023/05/19 07:59:54;;;;;;;7.83;2.90;;;15.60;62.60;;;;;;5068701;28;21112;-62
2023/05/19 08:02:33;;;;;;;7.23;3.27;;;15.60;62.40;;;;;;5069522;28;20492;-62
2023/05/19 08:05:09;;;;;;;10.60;3.80;;;15.60;62.30;;;;;;5068574;28;20546;-62
2023/05/19 08:07:44;;;;;;;11.07;4.17;;;15.70;62.30;;;;;;5068181;28;20467;-62
2023/05/19 08:10:21;;;;;;;9.03;3.23;;;15.70;62.20;;;;;;5071657;28;20446;-62
2023/05/19 08:12:52;;;;;;;11.47;3.90;;;15.80;62.10;;;;;;5066192;28;20475;-62
2023/05/19 08:15:28;;;;;;;11.27;3.80;;;15.80;62.00;;;;;;5066582;28;20495;-62
2023/05/19 08:18:00;;;;;;;9.93;3.13;;;15.80;61.90;;;;;;5067711;28;21199;-61
2023/05/19 08:20:34;;;;;;;11.80;4.33;;;15.90;61.90;;;;;;5071240;28;20955;-63
2023/05/19 08:23:14;;;;;;;10.70;3.07;;;15.90;61.90;;;;;;5066568;28;20932;-62
2023/05/19 08:25:47;;;;;;;11.60;4.00;;;16.00;61.90;;;;;;5069165;28;20498;-62
2023/05/19 08:28:26;;;;;;;10.27;4.30;;;16.10;61.80;;;;;;5067688;28;20453;-62
2023/05/19 08:31:00;;;;;;;7.67;3.50;;;16.10;61.70;;;;;;5066306;28;20496;-66
2023/05/19 08:33:41;;;;;;;10.90;4.20;;;16.10;61.60;;;;;;5066412;28;20958;-64
2023/05/19 08:36:18;;;;;;;8.90;3.40;;;16.20;61.70;;;;;;5068663;28;21011;-61
2023/05/19 08:39:06;;;;;;;9.80;3.70;;;16.30;61.60;;;;;;5065987;28;20472;-64
2023/05/19 08:41:37;;;;;;;9.27;4.00;;;16.30;61.40;;;;;;5064416;28;20934;-64
2023/05/19 08:44:06;;;;;;;10.50;4.37;;;16.30;61.40;;;;;;5068842;28;20457;-63
2023/05/19 08:46:39;;;;;;;10.10;4.20;;;16.30;61.40;;;;;;5069828;28;20455;-63
2023/05/19 08:49:15;;;;;;;10.40;4.50;;;16.30;61.40;;;;;;5067654;28;20448;-62
2023/05/19 08:51:53;;;;;;;13.63;5.20;;;16.30;61.40;;;;;;5068031;28;20463;-63
2023/05/19 08:54:42;;;;;;;9.10;4.10;;;16.30;61.50;;;;;;5067432;28;20800;-64
2023/05/19 08:57:19;;;;;;;11.37;3.87;;;16.40;61.40;;;;;;5069516;28;20484;-63
2023/05/19 08:59:52;;;;;;;15.10;3.60;;;16.40;61.20;;;;;;5068957;28;20851;-63
2023/05/19 09:02:27;;;;;;;8.20;3.63;;;16.40;61.20;;;;;;5065853;28;20569;-61
2023/05/19 09:05:00;;;;;;;9.77;3.50;;;16.50;61.00;;;;;;5069666;28;20461;-62
2023/05/19 09:07:37;;;;;;;10.13;4.10;;;16.50;61.10;;;;;;5069743;28;20445;-63
2023/05/19 09:10:13;;;;;;;7.33;2.80;;;16.50;61.10;;;;;;5069246;28;20449;-62
2023/05/19 09:12:54;;;;;;;12.97;3.67;;;16.60;61.00;;;;;;5066601;28;20452;-63
2023/05/19 09:15:28;;;;;;;12.20;3.80;;;16.70;61.20;;;;;;5067136;28;20942;-63
2023/05/19 09:18:11;;;;;;;10.43;3.60;;;16.70;60.80;;;;;;5069686;28;20449;-63
2023/05/19 09:20:47;;;;;;;9.03;3.80;;;16.70;60.80;;;;;;5069319;28;20450;-63
2023/05/19 09:23:28;;;;;;;12.57;3.27;;;16.70;60.70;;;;;;5069023;28;20467;-63
2023/05/19 09:26:12;;;;;;;10.23;3.83;;;16.70;60.60;;;;;;5067204;28;20464;-62
2023/05/19 09:28:46;;;;;;;10.03;3.90;;;16.70;60.60;;;;;;5065601;28;20545;-61
2023/05/19 09:31:16;;;;;;;6.97;2.90;;;16.80;60.70;;;;;;5067630;28;20538;-63
2023/05/19 09:33:47;;;;;;;12.33;4.27;;;16.80;60.70;;;;;;5066029;28;21152;-62
2023/05/19 09:36:24;;;;;;;12.17;4.20;;;16.80;60.70;;;;;;5067972;28;20491;-63
2023/05/19 09:38:59;;;;;;;8.73;3.77;;;16.90;60.80;;;;;;5068449;28;20488;-62
2023/05/19 09:41:37;;;;;;;10.93;3.87;;;16.90;60.60;;;;;;5065540;28;20475;-62
2023/05/19 09:44:11;;;;;;;8.87;3.50;;;17.00;60.60;;;;;;5067097;28;20452;-62
2023/05/19 09:46:51;;;;;;;7.53;3.23;;;17.10;60.40;;;;;;5066325;28;20909;-62
2023/05/19 09:49:31;;;;;;;10.00;4.00;;;17.20;60.40;;;;;;5066967;28;20508;-62
2023/05/19 09:52:09;;;;;;;11.70;3.60;;;17.20;60.60;;;;;;5067590;28;20914;-62
2023/05/19 09:54:41;;;;;;;10.87;3.60;;;17.30;60.50;;;;;;5065219;28;20842;-62
2023/05/19 09:57:28;;;;;;;13.30;4.03;;;17.30;60.30;;;;;;5066347;28;20980;-62
2023/05/19 10:00:00;;;;;;;8.00;3.70;;;17.30;60.00;;;;;;5064456;28;20476;-62
2023/05/19 10:02:41;;;;;;;12.30;3.77;;;17.30;59.90;;;;;;5065297;28;21009;-62
2023/05/19 10:05:15;;;;;;;10.40;3.10;;;17.20;59.80;;;;;;5065374;28;20855;-62
2023/05/19 10:07:54;;;;;;;10.60;3.50;;;17.20;59.60;;;;;;5065087;28;20457;-63
2023/05/19 10:10:27;;;;;;;14.00;3.57;;;17.20;59.50;;;;;;5063696;28;20727;-62
2023/05/19 10:13:02;;;;;;;7.70;3.13;;;17.20;59.60;;;;;;5065251;28;20442;-62
2023/05/19 10:15:44;;;;;;;8.50;3.83;;;17.10;59.60;;;;;;5066532;28;20470;-63
2023/05/19 10:18:29;;;;;;;7.70;3.30;;;17.10;59.70;;;;;;5066744;28;20491;-62
2023/05/19 10:21:10;;;;;;;10.53;3.77;;;17.20;60.00;;;;;;5066585;28;20446;-62
2023/05/19 10:23:47;;;;;;;7.50;3.60;;;17.20;59.70;;;;;;5063900;28;20509;-61
2023/05/19 10:26:18;;;;;;;14.67;4.07;;;17.30;59.50;;;;;;5066621;28;20775;-62
2023/05/19 10:28:56;;;;;;;9.57;3.30;;;17.30;59.70;;;;;;5067486;28;21092;-62
2023/05/19 10:31:30;;;;;;;8.73;3.13;;;17.30;59.60;;;;;;5064587;28;20558;-62
2023/05/19 10:34:32;;;;;;;7.53;3.40;;;17.30;59.60;;;;;;5065235;28;20464;-62
2023/05/19 10:37:18;;;;;;;11.00;3.50;;;17.30;59.50;;;;;;5066137;28;20482;-62
2023/05/19 10:39:52;;;;;;;8.97;4.57;;;17.40;59.60;;;;;;5067521;28;20474;-62
2023/05/19 10:42:34;;;;;;;10.83;4.47;;;17.40;59.40;;;;;;5070277;28;20464;-63
2023/05/19 10:45:18;;;;;;;11.40;2.97;;;17.40;59.30;;;;;;5071993;28;20478;-62
2023/05/19 10:47:53;;;;;;;9.93;3.27;;;17.50;59.50;;;;;;5069207;28;20465;-62
2023/05/19 10:50:31;;;;;;;9.90;3.70;;;17.50;59.60;;;;;;5075041;28;20447;-62
2023/05/19 10:53:07;;;;;;;14.23;4.53;;;17.50;59.40;;;;;;5065572;28;20546;-62
2023/05/19 10:55:52;;;;;;;15.27;4.40;;;17.50;59.10;;;;;;5069188;28;20467;-62
2023/05/19 10:58:51;;;;;;;8.80;3.50;;;17.50;59.10;;;;;;5069419;28;20638;-62
2023/05/19 11:01:40;;;;;;;9.43;3.70;;;17.60;59.10;;;;;;5064470;28;20492;-62
2023/05/19 11:04:18;;;;;;;7.77;3.10;;;17.60;58.90;;;;;;5070309;28;20461;-62
2023/05/19 11:06:52;;;;;;;8.83;3.17;;;17.60;58.90;;;;;;5071103;28;20942;-62
2023/05/19 11:09:25;;;;;;;10.50;3.47;;;17.60;59.10;;;;;;5070373;28;20450;-62
2023/05/19 11:12:11;;;;;;;7.40;2.90;;;17.60;59.10;;;;;;5068634;28;20455;-62
2023/05/19 11:14:43;;;;;;;7.13;2.60;;;17.60;59.30;;;;;;5072264;28;20557;-62
2023/05/19 11:17:29;;;;;;;9.23;3.13;;;17.60;59.20;;;;;;5068307;28;21150;-62
2023/05/19 11:20:11;;;;;;;7.73;4.33;;;17.70;59.10;;;;;;5070326;28;20447;-62
2023/05/19 11:22:44;;;;;;;9.67;4.53;;;17.60;59.30;;;;;;5065132;28;20470;-62
2023/05/19 11:25:15;;;;;;;8.43;3.30;;;17.70;59.30;;;;;;5068121;28;20466;-62
2023/05/19 11:27:51;;;;;;;9.00;2.70;;;17.70;59.50;;;;;;5068365;28;20558;-62
2023/05/19 11:30:32;;;;;;;12.40;4.70;;;17.70;59.50;;;;;;5068439;28;20929;-62
2023/05/19 11:33:05;;;;;;;7.03;2.87;;;17.70;59.50;;;;;;5068395;28;20519;-62
2023/05/19 11:35:36;;;;;;;7.83;3.00;;;17.80;59.50;;;;;;5067508;28;20464;-62
2023/05/19 11:38:07;;;;;;;7.23;2.90;;;17.80;59.60;;;;;;5066554;28;20601;-62
2023/05/19 11:40:39;;;;;;;8.97;2.90;;;17.80;59.60;;;;;;5067342;28;20466;-62
2023/05/19 11:43:12;;;;;;;6.20;2.50;;;17.80;59.60;;;;;;5068971;28;20495;-62
2023/05/19 11:45:40;;;;;;;6.33;2.70;;;17.80;59.40;;;;;;5072401;28;21182;-62
2023/05/19 11:48:26;;;;;;;7.20;2.70;;;17.90;59.50;;;;;;5063825;28;20462;-62
2023/05/19 11:50:56;;;;;;;6.93;2.93;;;17.90;59.40;;;;;;5071605;28;20986;-62
2023/05/19 11:53:35;;;;;;;6.50;2.53;;;17.90;59.50;;;;;;5069146;28;20503;-62
2023/05/19 11:56:14;;;;;;;5.20;2.27;;;17.90;59.50;;;;;;5068161;28;20446;-62
2023/05/19 11:58:50;;;;;;;6.90;3.40;;;17.90;59.50;;;;;;5067690;28;21110;-62
2023/05/19 12:01:25;;;;;;;6.53;2.53;;;17.90;59.40;;;;;;5067997;28;20503;-62
2023/05/19 12:04:09;;;;;;;8.00;3.00;;;17.90;59.50;;;;;;5073349;28;20970;-62
2023/05/19 12:06:43;;;;;;;7.57;2.83;;;17.90;59.50;;;;;;5062839;28;20529;-63
2023/05/19 12:09:16;;;;;;;5.87;3.10;;;17.90;59.40;;;;;;5068460;28;20455;-62
2023/05/19 12:11:57;;;;;;;8.60;3.10;;;17.90;59.40;;;;;;5069462;28;20461;-62
2023/05/19 12:14:34;;;;;;;8.97;3.37;;;18.00;59.50;;;;;;5070388;28;20459;-62
2023/05/19 12:17:14;;;;;;;8.20;2.87;;;18.00;59.60;;;;;;5066233;28;20480;-62
2023/05/19 12:19:50;;;;;;;6.10;2.47;;;18.10;59.70;;;;;;5070154;28;20484;-63
2023/05/19 12:22:23;;;;;;;7.27;2.73;;;18.10;59.50;;;;;;5070168;28;20449;-62
2023/05/19 12:24:54;;;;;;;8.03;3.10;;;18.10;59.40;;;;;;5070422;28;20462;-62
2023/05/19 12:27:30;;;;;;;5.50;2.40;;;18.10;59.40;;;;;;5068253;28;20555;-62
2023/05/19 12:30:05;;;;;;;8.47;2.63;;;18.20;59.40;;;;;;5073249;28;20987;-63
2023/05/19 12:32:43;;;;;;;7.67;3.33;;;18.30;59.30;;;;;;5066496;28;20487;-63
2023/05/19 12:35:28;;;;;;;7.57;2.80;;;18.30;59.40;;;;;;5069749;28;20994;-62
2023/05/19 12:38:06;;;;;;;6.00;2.60;;;18.40;59.10;;;;;;5070949;28;20483;-62
2023/05/19 12:40:38;;;;;;;7.30;3.20;;;18.40;59.20;;;;;;5069284;28;20458;-62
2023/05/19 12:43:24;;;;;;;7.03;2.80;;;18.40;59.10;;;;;;5068183;28;20911;-63
2023/05/19 12:45:59;;;;;;;11.50;2.73;;;18.40;58.90;;;;;;5071636;28;20467;-62
2023/05/19 12:48:33;;;;;;;6.73;3.13;;;18.50;58.80;;;;;;5068914;28;20465;-62
2023/05/19 12:51:13;;;;;;;8.37;3.37;;;18.50;58.80;;;;;;5070730;28;20469;-62
2023/05/19 12:53:44;;;;;;;6.40;3.00;;;18.50;58.80;;;;;;5068437;28;20828;-62
2023/05/19 12:56:20;;;;;;;8.93;2.77;;;18.60;58.90;;;;;;5068356;28;20451;-62
2023/05/19 12:58:57;;;;;;;6.27;3.10;;;18.70;58.70;;;;;;5070818;28;20468;-62
2023/05/19 13:01:31;;;;;;;6.00;2.63;;;18.80;58.20;;;;;;5069194;28;20479;-62
2023/05/19 13:04:05;;;;;;;6.67;2.60;;;18.80;58.10;;;;;;5067500;28;20482;-62
2023/05/19 13:06:42;;;;;;;5.20;2.30;;;18.80;57.60;;;;;;5066500;28;20544;-62
2023/05/19 13:09:16;;;;;;;8.90;2.93;;;18.90;57.40;;;;;;5068819;28;20539;-62
2023/05/19 13:11:49;;;;;;;9.77;2.63;;;18.90;57.10;;;;;;5069541;28;20465;-62
2023/05/19 13:14:19;;;;;;;7.67;2.03;;;18.90;57.10;;;;;;5067465;28;20475;-62
2023/05/19 13:16:50;;;;;;;7.07;2.20;;;19.00;56.80;;;;;;5070426;28;20642;-62
2023/05/19 13:19:24;;;;;;;6.77;2.87;;;19.00;56.60;;;;;;5061391;28;20480;-63
2023/05/19 13:22:03;;;;;;;5.53;2.47;;;19.10;56.60;;;;;;5068468;28;20649;-62
2023/05/19 13:24:38;;;;;;;18.17;4.90;;;19.10;56.50;;;;;;5071525;28;20496;-62
2023/05/19 13:27:12;;;;;;;8.70;3.27;;;19.20;56.30;;;;;;5066313;28;20488;-62
2023/05/19 13:29:45;;;;;;;8.47;3.53;;;19.10;56.20;;;;;;5067057;28;21088;-62
2023/05/19 13:32:17;;;;;;;9.93;4.23;;;19.10;56.30;;;;;;5068853;28;20478;-62
2023/05/19 13:34:55;;;;;;;10.60;4.60;;;19.10;56.40;;;;;;5069026;28;20461;-62
2023/05/19 13:37:30;;;;;;;9.23;2.80;;;19.10;56.40;;;;;;5070133;28;20456;-62
2023/05/19 13:40:10;;;;;;;8.73;3.10;;;19.20;56.20;;;;;;5068353;28;20553;-63
2023/05/19 13:42:43;;;;;;;7.83;2.70;;;19.20;56.20;;;;;;5068090;28;20866;-62